Time;durP1;ratioP1;P1;durP2;ratioP2;P2;SDS_P1;SDS_P2;PMS_P1;PMS_P2;Temp;Humidity;BMP_temperature;BMP_pressure;BME280_temperature;BME280_humidity;BME280_pressure;Samples;Min_cycle;Max_cycle;Signal;HPM_P1;HPM_P2
2022/01/04 00:11:42;;;;;;;;;3.60;3.20;;;;;11.64;100.00;100025.75;4771226;29;44917;-83
2022/01/04 00:22:45;;;;;;;;;4.00;3.00;;;;;11.53;100.00;99986.75;4771462;29;45065;-81
2022/01/04 00:25:25;;;;;;;;;;;;;;;;;;;;;
2022/01/04 00:29:11;;;;;;;;;2.00;2.00;;;;;11.55;100.00;99976.81;4789512;29;69337;-83
2022/01/04 00:36:15;;;;;;;;;1.00;1.00;;;;;11.53;100.00;99943.34;4777084;29;45581;-83
2022/01/04 00:39:28;;;;;;;;;2.40;1.00;;;;;11.52;100.00;99939.00;4794726;29;45468;-82
2022/01/04 00:42:43;;;;;;;;;1.00;0.20;;;;;11.51;100.00;99924.88;4805237;29;45658;-83
2022/01/04 00:45:45;;;;;;;;;0.80;0.80;;;;;11.56;100.00;99925.31;4731323;29;44925;-83
2022/01/04 00:52:15;;;;;;;;;;;;;;;;;;;;;
2022/01/04 00:55:38;;;;;;;;;;;;;;;;;;;;;
2022/01/04 00:58:47;;;;;;;;;1.40;1.00;;;;;11.59;100.00;99885.13;4705313;30;70741;-83
2022/01/04 01:01:18;;;;;;;;;0.00;0.00;;;;;11.59;100.00;99876.31;4712054;30;46840;-82
2022/01/04 01:04:09;;;;;;;;;0.80;0.80;;;;;11.59;100.00;99873.66;4697488;30;45250;-83
2022/01/04 01:06:46;;;;;;;;;1.00;1.00;;;;;11.59;100.00;99855.88;4697514;30;45576;-83
2022/01/04 01:10:21;;;;;;;;;0.00;0.00;;;;;11.63;100.00;99852.97;4715519;30;45603;-83
2022/01/04 01:12:58;;;;;;;;;0.60;0.60;;;;;11.64;100.00;99841.34;4718405;30;45481;-82
2022/01/04 01:18:59;;;;;;;;;1.00;1.00;;;;;11.70;100.00;99828.38;4768774;29;45445;-82
2022/01/04 01:22:06;;;;;;;;;;;;;;;;;;;;;
2022/01/04 01:25:08;;;;;;;;;0.00;0.00;;;;;11.72;100.00;99828.25;4849787;28;74572;-82
2022/01/04 01:28:38;;;;;;;;;0.60;0.60;;;;;11.72;100.00;99812.28;4929964;28;44802;-83
2022/01/04 01:31:12;;;;;;;;;0.00;0.00;;;;;11.73;100.00;99813.94;4995692;28;45578;-82
2022/01/04 01:34:20;;;;;;;;;;;;;;;;;;;;;
2022/01/04 01:37:21;;;;;;;;;0.00;0.00;;;;;11.73;100.00;99798.81;4971822;28;73923;-82
2022/01/04 01:40:06;;;;;;;;;0.40;0.00;;;;;11.74;100.00;99792.53;4988414;28;45609;-84
2022/01/04 01:43:30;;;;;;;;;0.00;0.00;;;;;11.74;100.00;99786.38;4976225;28;44906;-83
2022/01/04 01:45:56;;;;;;;;;0.00;0.00;;;;;11.75;100.00;99780.94;4976219;28;45057;-81
2022/01/04 01:52:40;;;;;;;;;0.60;0.60;;;;;11.77;100.00;99764.81;4921998;28;45415;-84
2022/01/04 01:55:07;;;;;;;;;0.60;0.60;;;;;11.78;100.00;99759.34;4878184;29;45561;-81
2022/01/04 02:01:51;;;;;;;;;;;;;;;;;;;;;
2022/01/04 02:08:04;;;;;;;;;0.80;0.80;;;;;11.81;100.00;99747.63;4843965;29;45508;-83
2022/01/04 02:10:57;;;;;;;;;0.60;0.60;;;;;11.85;100.00;99745.56;4829047;29;45600;-82
2022/01/04 02:16:33;;;;;;;;;2.60;2.00;;;;;11.85;100.00;99727.78;4848373;29;45277;-83
2022/01/04 02:19:30;;;;;;;;;1.80;0.00;;;;;11.86;100.00;99720.63;4845510;29;44858;-82
2022/01/04 02:26:29;;;;;;;;;1.20;1.20;;;;;11.81;100.00;99700.56;4836988;29;45502;-82
2022/01/04 02:33:22;;;;;;;;;0.20;0.20;;;;;11.86;100.00;99692.19;4944333;28;45288;-81
2022/01/04 02:35:53;;;;;;;;;0.80;0.80;;;;;11.85;100.00;99679.88;4932492;28;45341;-82
2022/01/04 02:38:47;;;;;;;;;1.00;1.00;;;;;11.82;100.00;99667.66;4952638;28;45583;-82
2022/01/04 02:42:36;;;;;;;;;;;;;;;;;;;;;
2022/01/04 02:48:26;;;;;;;;;1.00;1.00;;;;;11.72;100.00;99660.63;4880339;29;45578;-82
2022/01/04 02:50:58;;;;;;;;;5.60;3.00;;;;;11.69;100.00;99648.41;4856430;29;47679;-82
2022/01/04 02:53:24;;;;;;;;;7.00;7.00;;;;;11.63;100.00;99645.47;4861584;29;45449;-82
2022/01/04 02:56:10;;;;;;;;;6.25;5.75;;;;;11.45;100.00;99629.31;4861939;29;44856;-82
2022/01/04 02:58:39;;;;;;;;;11.60;6.40;;;;;11.36;100.00;99635.44;4861501;29;45335;-83
2022/01/04 03:01:04;;;;;;;;;5.00;4.20;;;;;11.31;100.00;99625.22;4861770;29;46362;-81
2022/01/04 03:03:31;;;;;;;;;6.00;4.50;;;;;11.24;100.00;99624.06;4861792;29;45537;-81
2022/01/04 03:05:57;;;;;;;;;6.00;6.00;;;;;11.16;100.00;99632.69;4876031;29;45484;-80
2022/01/04 03:08:23;;;;;;;;;7.00;7.00;;;;;11.10;100.00;99617.31;4881147;29;45496;-79
2022/01/04 03:10:49;;;;;;;;;9.60;8.40;;;;;11.07;100.00;99620.22;4882305;29;46180;-81
2022/01/04 03:13:16;;;;;;;;;8.00;6.00;;;;;11.00;100.00;99614.59;4884701;29;44810;-82
2022/01/04 03:15:43;;;;;;;;;7.00;7.00;;;;;10.96;100.00;99612.34;4882129;29;44840;-81
2022/01/04 03:18:08;;;;;;;;;9.40;8.80;;;;;10.89;100.00;99620.00;4902215;28;45369;-81
2022/01/04 03:20:34;;;;;;;;;8.75;8.75;;;;;10.78;100.00;99615.63;4958366;28;45352;-81
2022/01/04 03:22:59;;;;;;;;;9.75;7.00;;;;;10.73;100.00;99601.91;4958197;28;45421;-81
2022/01/04 03:25:25;;;;;;;;;4.75;3.75;;;;;10.70;100.00;99594.19;5000152;28;45431;-81
2022/01/04 03:27:50;;;;;;;;;10.50;9.00;;;;;10.63;100.00;99587.69;5018842;28;45281;-80
2022/01/04 03:30:16;;;;;;;;;10.25;10.25;;;;;10.62;100.00;99593.16;5019304;28;46193;-81
2022/01/04 03:32:41;;;;;;;;;10.50;9.00;;;;;10.59;100.00;99590.75;5001286;28;44807;-81
2022/01/04 03:35:07;;;;;;;;;13.50;7.25;;;;;10.46;100.00;99586.50;5020024;28;45184;-80
2022/01/04 03:37:33;;;;;;;;;7.25;7.00;;;;;10.39;100.00;99585.31;5019015;28;44973;-81
2022/01/04 03:39:58;;;;;;;;;6.00;6.00;;;;;10.31;100.00;99568.38;4984161;28;46940;-80
2022/01/04 03:42:23;;;;;;;;;10.00;8.50;;;;;10.22;100.00;99557.53;5000685;28;44807;-81
2022/01/04 03:44:49;;;;;;;;;6.00;5.75;;;;;10.12;100.00;99561.94;5018839;28;45294;-80
2022/01/04 03:47:14;;;;;;;;;3.75;3.75;;;;;10.05;100.00;99558.94;5000974;28;45604;-81
2022/01/04 03:49:39;;;;;;;;;3.50;3.50;;;;;9.99;100.00;99564.75;5000902;28;46767;-79
2022/01/04 03:52:05;;;;;;;;;3.00;3.00;;;;;9.91;100.00;99563.69;5036691;28;45293;-79
2022/01/04 03:54:30;;;;;;;;;5.00;3.00;;;;;9.79;100.00;99560.25;5040118;28;45374;-80
2022/01/04 03:56:55;;;;;;;;;1.00;1.00;;;;;9.72;100.00;99556.44;5020818;28;45150;-81
2022/01/04 03:59:21;;;;;;;;;1.50;1.50;;;;;9.64;100.00;99558.88;5038678;28;45253;-81
2022/01/04 04:01:47;;;;;;;;;0.25;0.25;;;;;9.50;100.00;99568.78;5038961;28;45384;-81
2022/01/04 04:04:13;;;;;;;;;1.00;1.00;;;;;9.45;100.00;99559.53;5039362;28;45446;-80
2022/01/04 04:06:40;;;;;;;;;2.00;0.25;;;;;9.40;100.00;99577.63;5021269;28;44890;-82
2022/01/04 04:09:05;;;;;;;;;1.00;1.00;;;;;9.35;100.00;99562.09;5020792;28;47438;-82
2022/01/04 04:11:31;;;;;;;;;1.75;0.75;;;;;9.30;100.00;99568.72;5020480;28;45440;-81
2022/01/04 04:13:56;;;;;;;;;2.00;1.00;;;;;9.23;100.00;99569.22;5038697;28;44761;-81
2022/01/04 04:16:22;;;;;;;;;0.00;0.00;;;;;9.15;100.00;99563.69;5020461;28;45525;-82
2022/01/04 04:18:48;;;;;;;;;1.00;1.00;;;;;9.04;100.00;99576.09;5020971;28;47164;-82
2022/01/04 04:21:13;;;;;;;;;1.00;1.00;;;;;9.02;100.00;99569.13;5020983;28;44825;-81
2022/01/04 04:23:39;;;;;;;;;3.75;3.00;;;;;8.96;100.00;99576.72;5020648;28;45421;-81
2022/01/04 04:26:06;;;;;;;;;6.75;4.00;;;;;8.90;100.00;99567.44;5020069;28;45377;-82
2022/01/04 04:28:31;;;;;;;;;2.00;2.00;;;;;8.89;100.00;99573.69;5020902;28;46030;-81
2022/01/04 04:30:57;;;;;;;;;1.25;1.00;;;;;8.86;100.00;99587.19;5025795;28;44744;-83
2022/01/04 04:33:23;;;;;;;;;2.00;2.00;;;;;8.83;100.00;99592.72;5044759;28;45452;-82
2022/01/04 04:35:48;;;;;;;;;0.00;0.00;;;;;8.83;100.00;99579.47;5045014;28;44862;-80
2022/01/04 04:38:14;;;;;;;;;2.00;0.00;;;;;8.77;100.00;99579.97;5022692;28;46774;-81
2022/01/04 04:40:39;;;;;;;;;1.00;1.00;;;;;8.75;100.00;99582.75;5020696;28;45533;-81
2022/01/04 04:43:05;;;;;;;;;0.00;0.00;;;;;8.75;100.00;99581.88;5021419;28;45448;-81
2022/01/04 04:45:30;;;;;;;;;0.00;0.00;;;;;8.67;100.00;99590.41;5028301;28;44871;-82
2022/01/04 04:47:56;;;;;;;;;0.00;0.00;;;;;8.69;100.00;99601.72;5049030;28;45330;-81
2022/01/04 04:50:21;;;;;;;;;0.00;0.00;;;;;8.67;100.00;99594.88;5033136;28;44788;-82
2022/01/04 04:52:47;;;;;;;;;0.00;0.00;;;;;8.68;100.00;99589.44;5054660;28;45020;-81
2022/01/04 04:55:12;;;;;;;;;0.00;0.00;;;;;8.60;100.00;99604.25;5033927;28;44851;-80
2022/01/04 04:57:39;;;;;;;;;0.00;0.00;;;;;8.59;100.00;99611.34;5024364;28;45466;-82
2022/01/04 05:00:07;;;;;;;;;0.00;0.00;;;;;8.56;100.00;99608.06;5020519;28;45489;-82
2022/01/04 05:02:32;;;;;;;;;0.00;0.00;;;;;8.49;100.00;99607.72;5021176;28;44830;-82
2022/01/04 05:04:58;;;;;;;;;0.00;0.00;;;;;8.46;100.00;99610.59;5038511;28;45435;-82
2022/01/04 05:07:28;;;;;;;;;0.60;0.00;;;;;8.42;100.00;99611.81;5020402;28;46058;-82
2022/01/04 05:09:54;;;;;;;;;0.00;0.00;;;;;8.35;100.00;99602.59;5020081;28;45225;-82
2022/01/04 05:12:19;;;;;;;;;1.00;0.00;;;;;8.32;100.00;99608.97;5038271;28;44678;-82
2022/01/04 05:14:46;;;;;;;;;0.00;0.00;;;;;8.29;100.00;99609.19;5042001;28;44701;-84
2022/01/04 05:17:15;;;;;;;;;0.00;0.00;;;;;8.27;100.00;99618.19;5025563;28;46494;-82
2022/01/04 05:19:41;;;;;;;;;0.00;0.00;;;;;8.28;100.00;99619.91;5019862;28;45002;-81
2022/01/04 05:22:08;;;;;;;;;0.00;0.00;;;;;8.29;100.00;99632.19;5019830;28;44712;-82
2022/01/04 05:24:34;;;;;;;;;0.00;0.00;;;;;8.29;100.00;99627.72;5019957;28;45338;-83
2022/01/04 05:26:59;;;;;;;;;0.00;0.00;;;;;8.20;100.00;99633.69;5037697;28;45523;-81
2022/01/04 05:29:25;;;;;;;;;0.00;0.00;;;;;8.18;100.00;99617.13;5019264;28;44855;-81
2022/01/04 05:31:50;;;;;;;;;0.00;0.00;;;;;8.20;100.00;99629.25;5019199;28;45419;-81
2022/01/04 05:34:16;;;;;;;;;0.00;0.00;;;;;8.18;100.00;99627.69;5019200;28;44839;-81
2022/01/04 05:36:41;;;;;;;;;0.00;0.00;;;;;8.19;100.00;99624.91;5018952;28;47274;-82
2022/01/04 05:39:07;;;;;;;;;0.00;0.00;;;;;8.17;100.00;99631.28;5036154;28;45394;-81
2022/01/04 05:41:33;;;;;;;;;0.00;0.00;;;;;8.19;100.00;99632.88;5019861;28;45326;-82
2022/01/04 05:43:59;;;;;;;;;0.00;0.00;;;;;8.16;100.00;99626.94;5019186;28;44945;-80
2022/01/04 05:46:24;;;;;;;;;0.00;0.00;;;;;8.11;100.00;99622.00;5018954;28;46829;-83
2022/01/04 05:48:50;;;;;;;;;1.00;1.00;;;;;8.14;100.00;99626.22;5018889;28;45443;-81
2022/01/04 05:51:16;;;;;;;;;0.50;0.50;;;;;8.11;100.00;99629.94;5037068;28;44774;-80
2022/01/04 05:53:41;;;;;;;;;0.75;0.75;;;;;8.08;100.00;99632.00;5019981;28;45545;-81
2022/01/04 05:56:06;;;;;;;;;1.00;1.00;;;;;8.09;100.00;99618.63;5023795;28;46798;-82
2022/01/04 05:58:32;;;;;;;;;0.50;0.50;;;;;8.09;100.00;99631.88;5024276;28;44823;-81
2022/01/04 06:00:58;;;;;;;;;1.25;1.25;;;;;8.13;100.00;99633.31;5037405;28;44899;-81
2022/01/04 06:03:23;;;;;;;;;1.00;1.00;;;;;8.09;100.00;99636.31;5019262;28;44992;-80
2022/01/04 06:05:52;;;;;;;;;1.75;0.50;;;;;8.08;100.00;99629.34;5018075;28;45598;-82
2022/01/04 06:08:19;;;;;;;;;1.80;1.00;;;;;8.10;100.00;99614.19;5036977;28;44831;-82
2022/01/04 06:10:45;;;;;;;;;1.40;1.40;;;;;8.07;100.00;99619.69;5019205;28;44709;-80
2022/01/04 06:15:38;;;;;;;;;0.50;0.50;;;;;8.15;100.00;99631.41;5036840;28;45337;-81
2022/01/04 06:18:04;;;;;;;;;1.60;1.00;;;;;8.16;100.00;99622.50;5018847;28;44802;-82
2022/01/04 06:20:31;;;;;;;;;1.00;1.00;;;;;8.16;100.00;99614.56;5017887;28;45270;-81
2022/01/04 06:22:56;;;;;;;;;1.00;1.00;;;;;8.17;100.00;99621.56;5036872;28;45330;-83
2022/01/04 06:25:22;;;;;;;;;1.00;1.00;;;;;8.20;100.00;99628.41;5018753;28;45359;-82
2022/01/04 06:27:51;;;;;;;;;2.00;2.00;;;;;8.19;100.00;99621.44;5018129;28;44833;-83
2022/01/04 06:30:20;;;;;;;;;0.00;0.00;;;;;8.16;100.00;99624.31;5036804;28;45415;-81
2022/01/04 06:32:46;;;;;;;;;1.00;1.00;;;;;8.15;100.00;99634.03;5020409;28;45377;-82
2022/01/04 06:35:13;;;;;;;;;1.25;1.25;;;;;8.13;100.00;99641.25;5019912;28;46712;-82
2022/01/04 06:37:41;;;;;;;;;2.00;2.00;;;;;8.13;100.00;99640.41;5042367;28;44811;-81
2022/01/04 06:40:08;;;;;;;;;2.00;2.00;;;;;8.13;100.00;99641.25;5022967;28;45370;-81
2022/01/04 06:42:33;;;;;;;;;0.60;0.60;;;;;8.10;100.00;99646.78;5036730;28;44679;-81
2022/01/04 06:44:58;;;;;;;;;1.75;1.75;;;;;8.12;100.00;99644.00;5036300;28;45210;-82
2022/01/04 06:47:24;;;;;;;;;1.00;1.00;;;;;8.05;100.00;99650.72;5018549;28;44681;-82
2022/01/04 06:49:49;;;;;;;;;1.00;1.00;;;;;8.05;100.00;99656.00;5038208;28;45218;-82
2022/01/04 06:52:15;;;;;;;;;2.00;1.00;;;;;8.07;100.00;99651.44;5024141;28;45195;-81
2022/01/04 06:54:40;;;;;;;;;2.25;1.00;;;;;8.10;100.00;99659.16;5025627;28;46376;-82
2022/01/04 06:57:05;;;;;;;;;0.75;0.75;;;;;8.09;100.00;99663.59;5025224;28;45274;-83
2022/01/04 06:59:31;;;;;;;;;4.00;1.00;;;;;8.08;100.00;99669.00;5022836;28;44641;-83
2022/01/04 07:01:56;;;;;;;;;2.00;1.00;;;;;8.08;100.00;99666.38;5022013;28;44917;-82
2022/01/04 07:04:22;;;;;;;;;0.00;0.00;;;;;8.07;100.00;99675.25;5021419;28;46254;-81
2022/01/04 07:06:47;;;;;;;;;1.00;1.00;;;;;8.07;100.00;99678.72;5039634;28;44914;-82
2022/01/04 07:09:12;;;;;;;;;2.00;2.00;;;;;8.09;100.00;99686.56;5039579;28;45222;-82
2022/01/04 07:11:38;;;;;;;;;1.50;1.50;;;;;8.11;100.00;99688.13;5021686;28;45356;-83
2022/01/04 07:14:04;;;;;;;;;4.00;3.00;;;;;8.12;100.00;99683.69;5021720;28;46819;-82
2022/01/04 07:16:30;;;;;;;;;2.00;2.00;;;;;8.10;100.00;99683.81;5040147;28;45295;-83
2022/01/04 07:18:55;;;;;;;;;3.00;3.00;;;;;8.12;100.00;99683.69;5027207;28;44959;-83
2022/01/04 07:21:21;;;;;;;;;2.00;2.00;;;;;8.17;100.00;99693.00;5044677;28;44945;-82
2022/01/04 07:23:48;;;;;;;;;1.80;1.00;;;;;8.18;100.00;99683.25;5021398;28;45414;-83
2022/01/04 07:26:15;;;;;;;;;2.00;2.00;;;;;8.14;100.00;99685.28;5020922;28;45386;-83
2022/01/04 07:28:43;;;;;;;;;2.00;1.00;;;;;8.12;100.00;99689.84;5021311;28;44729;-82
2022/01/04 07:31:09;;;;;;;;;1.00;1.00;;;;;8.08;100.00;99677.78;5040054;28;44807;-82
2022/01/04 07:33:35;;;;;;;;;0.50;0.50;;;;;8.10;100.00;99690.91;5042359;28;45290;-82
2022/01/04 07:36:01;;;;;;;;;1.20;1.20;;;;;8.09;100.00;99699.78;5024355;28;44794;-83
2022/01/04 07:38:26;;;;;;;;;2.00;2.00;;;;;8.07;100.00;99701.69;5021901;28;44843;-84
2022/01/04 07:40:52;;;;;;;;;2.00;2.00;;;;;8.10;100.00;99712.06;5021052;28;44995;-83
2022/01/04 07:43:18;;;;;;;;;0.25;0.25;;;;;8.11;100.00;99708.44;5039381;28;45195;-83
2022/01/04 07:45:44;;;;;;;;;3.00;3.00;;;;;8.11;100.00;99708.44;5038824;28;44652;-84
2022/01/04 07:48:10;;;;;;;;;4.00;2.50;;;;;8.14;100.00;99714.38;5021323;28;44831;-84
2022/01/04 07:50:42;;;;;;;;;4.00;4.00;;;;;8.08;100.00;99719.28;5023601;28;45253;-83
2022/01/04 07:53:08;;;;;;;;;4.40;2.60;;;;;8.08;100.00;99730.69;5021303;28;46960;-83
2022/01/04 07:55:34;;;;;;;;;3.25;2.00;;;;;8.11;100.00;99735.75;5021586;28;45286;-83
2022/01/04 07:58:00;;;;;;;;;4.00;4.00;;;;;8.08;100.00;99729.84;5040156;28;45255;-83
2022/01/04 08:00:25;;;;;;;;;4.00;2.75;;;;;8.08;100.00;99735.13;5025447;28;45539;-83
2022/01/04 08:02:52;;;;;;;;;5.00;4.25;;;;;8.13;100.00;99743.59;5023741;28;45274;-83
2022/01/04 08:05:18;;;;;;;;;4.40;3.60;;;;;8.15;100.00;99758.38;5040358;28;45787;-84
2022/01/04 08:07:43;;;;;;;;;5.60;4.60;;;;;8.19;100.00;99773.06;5021224;28;45456;-82
2022/01/04 08:10:10;;;;;;;;;9.50;7.00;;;;;8.17;100.00;99760.91;5039034;28;45163;-84
2022/01/04 08:12:36;;;;;;;;;7.00;4.60;;;;;8.14;100.00;99771.72;5038373;28;45663;-83
2022/01/04 08:15:03;;;;;;;;;5.00;5.00;;;;;8.15;100.00;99781.34;5038946;28;45619;-82
2022/01/04 08:17:31;;;;;;;;;3.20;3.00;;;;;8.17;100.00;99784.72;5038922;28;45238;-83
2022/01/04 08:19:57;;;;;;;;;2.00;0.00;;;;;8.17;100.00;99790.88;5039489;28;44845;-83
2022/01/04 08:22:23;;;;;;;;;4.25;2.50;;;;;8.17;100.00;99793.53;5037211;28;46891;-82
2022/01/04 08:24:48;;;;;;;;;5.00;1.50;;;;;8.17;100.00;99796.16;5038385;28;45450;-83
2022/01/04 08:27:14;;;;;;;;;3.00;1.00;;;;;8.16;100.00;99797.09;5038608;28;45058;-82
2022/01/04 08:29:39;;;;;;;;;6.00;1.00;;;;;8.16;100.00;99785.66;5038407;28;45472;-84
2022/01/04 08:32:07;;;;;;;;;0.50;0.50;;;;;8.14;100.00;99777.00;5037799;28;45028;-82
2022/01/04 08:34:33;;;;;;;;;1.20;1.20;;;;;8.18;100.00;99778.47;5020836;28;44866;-83
2022/01/04 08:36:58;;;;;;;;;3.00;3.00;;;;;8.22;100.00;99775.50;5023478;28;44782;-82
2022/01/04 08:39:26;;;;;;;;;4.00;4.00;;;;;8.27;100.00;99811.34;5034680;28;45500;-83
2022/01/04 08:41:55;;;;;;;;;1.50;1.50;;;;;8.29;100.00;99806.81;5041994;28;45099;-82
2022/01/04 08:44:22;;;;;;;;;3.00;3.00;;;;;8.36;100.00;99811.56;5040581;28;45407;-82
2022/01/04 08:46:48;;;;;;;;;2.60;2.20;;;;;8.33;100.00;99805.63;5019944;28;45355;-82
2022/01/04 08:49:13;;;;;;;;;3.25;2.25;;;;;8.35;100.00;99814.28;5038704;28;44916;-82
2022/01/04 08:51:39;;;;;;;;;3.25;2.00;;;;;8.34;100.00;99821.38;5019952;28;45478;-83
2022/01/04 08:54:06;;;;;;;;;2.25;2.00;;;;;8.34;100.00;99829.31;5004128;28;44778;-82
2022/01/04 08:56:32;;;;;;;;;1.00;1.00;;;;;8.30;100.00;99827.84;5043619;28;45377;-83
2022/01/04 08:58:58;;;;;;;;;1.00;1.00;;;;;8.30;100.00;99821.72;5042895;28;44766;-82
2022/01/04 09:01:24;;;;;;;;;2.00;2.00;;;;;8.31;100.00;99820.75;5024362;28;45519;-82
2022/01/04 09:03:50;;;;;;;;;3.50;1.00;;;;;8.23;100.00;99813.38;5021922;28;44947;-82
2022/01/04 09:06:19;;;;;;;;;2.40;2.00;;;;;8.24;100.00;99825.66;5019550;28;44820;-83
2022/01/04 09:08:44;;;;;;;;;1.40;1.00;;;;;8.27;100.00;99828.09;5020187;28;44898;-83
2022/01/04 09:11:10;;;;;;;;;2.00;2.00;;;;;8.27;100.00;99841.31;5038095;28;45432;-83
2022/01/04 09:13:40;;;;;;;;;1.00;1.00;;;;;8.29;100.00;99849.16;5023381;28;45130;-83
2022/01/04 09:18:43;;;;;;;;;1.00;1.00;;;;;8.34;100.00;99849.66;5044089;28;44847;-82
2022/01/04 09:21:10;;;;;;;;;2.60;2.00;;;;;8.33;100.00;99850.63;5023796;28;45381;-84
2022/01/04 09:23:36;;;;;;;;;2.80;2.60;;;;;8.33;100.00;99845.31;5026310;28;44696;-84
2022/01/04 09:26:02;;;;;;;;;2.75;2.75;;;;;8.34;100.00;99854.94;5025191;28;45278;-81
2022/01/04 09:28:28;;;;;;;;;3.40;3.40;;;;;8.35;100.00;99843.41;5019656;28;45002;-82
2022/01/04 09:30:53;;;;;;;;;5.00;5.00;;;;;8.36;100.00;99845.09;5019425;28;45676;-82
2022/01/04 09:33:22;;;;;;;;;3.25;1.50;;;;;8.37;100.00;99842.38;5019711;28;45340;-84
2022/01/04 09:35:49;;;;;;;;;3.20;3.20;;;;;8.44;100.00;99850.72;5037652;28;45238;-84
2022/01/04 09:38:16;;;;;;;;;4.00;3.25;;;;;8.48;100.00;99850.38;5019397;28;45036;-83
2022/01/04 09:40:50;;;;;;;;;1.80;1.80;;;;;8.53;100.00;99851.84;5023163;28;48193;-83
2022/01/04 09:43:20;;;;;;;;;5.60;2.20;;;;;8.55;100.00;99848.13;5022226;28;44902;-82
2022/01/04 09:45:51;;;;;;;;;4.75;2.50;;;;;8.53;100.00;99844.75;5038224;28;44782;-83
2022/01/04 09:48:22;;;;;;;;;2.00;2.00;;;;;8.59;100.00;99833.72;5019601;28;45393;-82
2022/01/04 09:50:48;;;;;;;;;3.00;3.00;;;;;8.64;100.00;99820.97;5019149;28;46107;-82
2022/01/04 09:53:19;;;;;;;;;3.25;3.25;;;;;8.68;100.00;99840.13;5037286;28;45232;-83
2022/01/04 09:55:48;;;;;;;;;3.60;3.00;;;;;8.69;100.00;99849.75;5019610;28;44782;-83
2022/01/04 09:58:13;;;;;;;;;6.00;3.00;;;;;8.68;100.00;99866.63;5020483;28;45339;-83
2022/01/04 10:00:39;;;;;;;;;5.75;5.00;;;;;8.73;100.00;99861.81;5026204;28;46162;-83
2022/01/04 10:03:22;;;;;;;;;5.00;5.00;;;;;8.74;100.00;99863.50;5022440;28;45251;-84
2022/01/04 10:05:48;;;;;;;;;6.60;4.40;;;;;8.77;100.00;99870.41;5026526;28;44775;-84
2022/01/04 10:08:14;;;;;;;;;5.00;5.00;;;;;8.75;100.00;99860.78;5041748;28;44723;-85
2022/01/04 10:10:41;;;;;;;;;6.25;5.25;;;;;8.78;100.00;99877.38;5020135;28;45282;-84
2022/01/04 10:13:10;;;;;;;;;6.40;5.00;;;;;8.81;100.00;99893.06;5020133;28;45243;-84
2022/01/04 10:15:43;;;;;;;;;5.00;5.00;;;;;8.78;100.00;99888.81;5038724;28;45379;-84
2022/01/04 10:18:17;;;;;;;;;7.00;5.00;;;;;8.77;100.00;99900.38;5021299;28;45572;-84
2022/01/04 10:20:42;;;;;;;;;5.00;5.00;;;;;8.81;100.00;99904.50;5039721;28;45572;-85
2022/01/04 10:23:16;;;;;;;;;4.00;4.00;;;;;8.77;100.00;99908.31;5040907;28;45257;-84
2022/01/04 10:25:41;;;;;;;;;4.00;4.00;;;;;8.76;100.00;99898.69;5023696;28;44886;-85
2022/01/04 10:28:07;;;;;;;;;6.00;5.00;;;;;8.86;100.00;99906.81;5042565;28;44825;-85
2022/01/04 10:30:35;;;;;;;;;7.50;6.50;;;;;8.89;100.00;99890.66;5023972;28;45535;-85
2022/01/04 10:33:14;;;;;;;;;6.00;4.80;;;;;8.97;100.00;99886.50;5040932;28;45455;-85
2022/01/04 10:35:42;;;;;;;;;6.00;6.00;;;;;9.05;100.00;99888.59;5023107;28;44760;-84
2022/01/04 10:38:35;;;;;;;;;5.75;5.00;;;;;9.08;100.00;99883.06;5024124;28;45523;-85
2022/01/04 10:41:05;;;;;;;;;10.75;7.75;;;;;9.13;100.00;99883.56;5018535;28;45061;-86
2022/01/04 10:43:55;;;;;;;;;7.00;5.40;;;;;9.20;100.00;99881.31;5043551;28;45221;-85
2022/01/04 10:46:33;;;;;;;;;7.00;7.00;;;;;9.31;100.00;99883.16;5041931;28;45272;-86
2022/01/04 10:48:59;;;;;;;;;7.00;6.00;;;;;9.36;100.00;99854.47;5050162;28;45484;-86
2022/01/04 10:51:27;;;;;;;;;6.20;6.20;;;;;9.45;100.00;99844.03;5043064;28;45293;-85
2022/01/04 10:54:00;;;;;;;;;13.80;9.80;;;;;9.46;100.00;99864.25;5023404;28;44653;-86
2022/01/04 10:56:31;;;;;;;;;6.20;5.00;;;;;9.48;100.00;99859.72;5023048;28;45496;-86
2022/01/04 10:58:59;;;;;;;;;5.25;5.25;;;;;9.51;100.00;99863.91;5023060;28;45405;-86
2022/01/04 11:01:27;;;;;;;;;4.00;4.00;;;;;9.50;100.00;99859.59;5023363;28;45389;-86
2022/01/04 11:04:01;;;;;;;;;5.20;5.20;;;;;9.52;100.00;99862.94;5023985;28;44703;-86
2022/01/04 11:06:31;;;;;;;;;2.00;2.00;;;;;9.47;100.00;99857.16;5041322;28;44940;-86
2022/01/04 11:08:58;;;;;;;;;3.00;3.00;;;;;9.43;100.00;99853.91;5046725;28;44818;-84
2022/01/04 11:11:24;;;;;;;;;2.00;1.00;;;;;9.43;100.00;99851.25;5052355;28;45494;-84
2022/01/04 11:13:53;;;;;;;;;1.00;1.00;;;;;9.37;100.00;99849.06;5034477;28;44775;-86
2022/01/04 11:16:22;;;;;;;;;4.00;2.00;;;;;9.38;100.00;99852.53;5032327;28;44731;-86
2022/01/04 11:18:50;;;;;;;;;4.20;2.40;;;;;9.42;100.00;99860.16;5022569;28;44878;-85
2022/01/04 11:21:20;;;;;;;;;5.00;4.00;;;;;9.34;100.00;99853.78;5038686;28;46723;-86
2022/01/04 11:23:48;;;;;;;;;2.00;2.00;;;;;9.38;100.00;99856.06;5024970;28;45495;-86
2022/01/04 11:26:14;;;;;;;;;3.00;2.20;;;;;9.47;100.00;99860.66;5026365;28;45294;-86
2022/01/04 11:28:45;;;;;;;;;2.20;2.20;;;;;9.50;100.00;99867.53;5046140;28;44868;-86
2022/01/04 11:31:37;;;;;;;;;2.00;2.00;;;;;9.43;100.00;99855.72;5028924;28;45163;-85
2022/01/04 11:34:18;;;;;;;;;4.20;4.20;;;;;9.51;100.00;99862.09;5039699;28;45420;-85
2022/01/04 11:36:51;;;;;;;;;5.00;3.60;;;;;9.53;100.00;99862.84;5029733;28;45474;-84
2022/01/04 11:39:35;;;;;;;;;2.20;2.20;;;;;9.50;100.00;99857.78;5024270;28;44903;-85
2022/01/04 11:42:14;;;;;;;;;3.40;3.40;;;;;9.49;100.00;99872.00;5029095;28;45204;-83
2022/01/04 11:44:47;;;;;;;;;2.80;1.80;;;;;9.46;100.00;99863.41;5029149;28;44847;-86
2022/01/04 11:47:31;;;;;;;;;4.20;2.60;;;;;9.58;100.00;99867.81;5041821;28;45465;-86
2022/01/04 11:50:25;;;;;;;;;1.00;1.00;;;;;9.67;100.00;99855.63;5027448;28;44817;-88
2022/01/04 11:52:56;;;;;;;;;2.80;2.20;;;;;9.67;100.00;99853.84;5000859;28;45383;-84
2022/01/04 11:55:36;;;;;;;;;2.00;2.00;;;;;9.69;100.00;99861.66;4980538;28;44885;-85
2022/01/04 11:58:13;;;;;;;;;3.60;3.40;;;;;9.76;100.00;99862.88;4982424;28;44799;-87
2022/01/04 12:00:45;;;;;;;;;2.00;2.00;;;;;9.79;100.00;99847.56;4997567;28;45435;-86
2022/01/04 12:03:18;;;;;;;;;5.00;3.20;;;;;9.77;100.00;99840.69;4997549;28;45362;-86
2022/01/04 12:05:55;;;;;;;;;2.00;1.00;;;;;9.68;100.00;99846.72;4982959;28;45202;-85
2022/01/04 12:08:28;;;;;;;;;3.40;2.00;;;;;9.71;100.00;99849.97;5000346;28;44751;-86
2022/01/04 12:10:56;;;;;;;;;2.20;2.20;;;;;9.76;100.00;99852.25;4984381;28;45411;-86
2022/01/04 12:13:24;;;;;;;;;4.20;4.20;;;;;9.77;100.00;99853.97;4987227;28;45310;-83
2022/01/04 12:15:59;;;;;;;;;6.00;4.20;;;;;9.77;100.00;99854.81;5000767;28;44842;-85
2022/01/04 12:18:24;;;;;;;;;4.00;4.00;;;;;9.76;100.00;99863.69;4981807;28;44867;-86
2022/01/04 12:20:56;;;;;;;;;2.00;2.00;;;;;9.75;100.00;99855.88;4982447;28;45500;-84
2022/01/04 12:23:31;;;;;;;;;4.00;3.00;;;;;9.75;100.00;99847.91;4981472;28;46261;-87
2022/01/04 12:26:02;;;;;;;;;4.20;3.80;;;;;9.77;100.00;99846.84;4996824;28;45538;-84
2022/01/04 12:28:29;;;;;;;;;3.00;3.00;;;;;9.82;100.00;99833.22;4982363;28;44699;-84
2022/01/04 12:31:30;;;;;;;;;3.20;3.20;;;;;9.82;100.00;99832.38;5001602;28;45191;-85
2022/01/04 12:34:05;;;;;;;;;2.60;2.60;;;;;9.78;100.00;99824.66;4963390;28;45351;-84
2022/01/04 12:36:38;;;;;;;;;3.40;3.00;;;;;9.77;100.00;99811.53;4978384;28;45354;-84
2022/01/04 12:39:08;;;;;;;;;1.40;0.00;;;;;9.77;100.00;99803.56;4960840;28;45327;-85
2022/01/04 12:41:35;;;;;;;;;1.60;1.60;;;;;9.85;100.00;99806.44;4962512;28;44917;-86
2022/01/04 12:44:03;;;;;;;;;3.00;3.00;;;;;9.88;100.00;99792.09;4978137;28;45354;-83
2022/01/04 12:46:31;;;;;;;;;4.60;3.20;;;;;9.91;100.00;99791.84;4964001;28;45505;-85
2022/01/04 12:49:01;;;;;;;;;4.00;3.00;;;;;9.94;100.00;99794.25;4962971;28;45513;-85
2022/01/04 12:51:34;;;;;;;;;1.80;0.40;;;;;9.99;100.00;99800.88;4972601;28;44790;-84
2022/01/04 12:54:17;;;;;;;;;2.80;2.80;;;;;9.89;100.00;99776.06;4965054;28;45256;-85
2022/01/04 12:56:46;;;;;;;;;4.20;3.00;;;;;9.96;100.00;99779.94;4968365;28;44838;-84
2022/01/04 12:59:28;;;;;;;;;3.20;2.00;;;;;10.03;100.00;99780.28;4968822;28;45435;-83
2022/01/04 13:01:57;;;;;;;;;2.00;2.00;;;;;10.01;100.00;99769.78;4953237;28;44953;-84